sensor_id;sensor_type;location;lat;lon;timestamp;pressure;altitude;pressure_sealevel;temperature;humidity
36304;BME280;22335;49.800;8.596;2022-09-13T00:04:50;100050.97;;;24.32;42.04
36304;BME280;22335;49.800;8.596;2022-09-13T00:11:36;100017.78;;;24.27;41.67
36304;BME280;22335;49.800;8.596;2022-09-13T00:18:24;100036.41;;;24.08;42.16
36304;BME280;22335;49.800;8.596;2022-09-13T00:25:09;100022.72;;;23.96;42.24
36304;BME280;22335;49.800;8.596;2022-09-13T00:31:55;100024.28;;;23.90;41.94
36304;BME280;22335;49.800;8.596;2022-09-13T00:38:43;100021.41;;;23.79;42.34
36304;BME280;22335;49.800;8.596;2022-09-13T00:45:30;99970.47;;;23.52;42.22
36304;BME280;22335;49.800;8.596;2022-09-13T00:52:16;99992.69;;;23.79;41.93
36304;BME280;22335;49.800;8.596;2022-09-13T00:59:09;100010.69;;;23.47;42.37
36304;BME280;22335;49.800;8.596;2022-09-13T01:06:01;99999.84;;;23.39;42.49
36304;BME280;22335;49.800;8.596;2022-09-13T01:12:53;99932.13;;;23.05;42.49
36304;BME280;22335;49.800;8.596;2022-09-13T01:19:45;99896.81;;;22.86;42.88
36304;BME280;22335;49.800;8.596;2022-09-13T01:26:46;99925.31;;;23.02;42.70
36304;BME280;22335;49.800;8.596;2022-09-13T01:33:57;99981.38;;;23.27;42.68
36304;BME280;22335;49.800;8.596;2022-09-13T01:41:02;100013.88;;;23.12;42.81
36304;BME280;22335;49.800;8.596;2022-09-13T01:47:56;99908.72;;;22.49;42.85
36304;BME280;22335;49.800;8.596;2022-09-13T01:54:52;99956.78;;;23.02;43.00
36304;BME280;22335;49.800;8.596;2022-09-13T02:01:46;99870.03;;;22.44;43.19
36304;BME280;22335;49.800;8.596;2022-09-13T02:08:39;99969.03;;;22.94;43.10
36304;BME280;22335;49.800;8.596;2022-09-13T02:15:31;100010.25;;;22.78;43.43
36304;BME280;22335;49.800;8.596;2022-09-13T02:22:24;99989.44;;;22.42;43.75
36304;BME280;22335;49.800;8.596;2022-09-13T02:29:15;99981.50;;;22.44;43.73
36304;BME280;22335;49.800;8.596;2022-09-13T02:36:08;100029.84;;;22.55;43.51
36304;BME280;22335;49.800;8.596;2022-09-13T02:42:59;100039.00;;;22.55;43.77
36304;BME280;22335;49.800;8.596;2022-09-13T03:03:38;100029.31;;;22.46;44.16
36304;BME280;22335;49.800;8.596;2022-09-13T03:10:26;100029.31;;;22.46;44.00
36304;BME280;22335;49.800;8.596;2022-09-13T03:17:29;100002.41;;;22.30;43.97
36304;BME280;22335;49.800;8.596;2022-09-13T03:24:31;100001.44;;;22.46;44.13
36304;BME280;22335;49.800;8.596;2022-09-13T03:31:30;99991.91;;;22.47;44.52
36304;BME280;22335;49.800;8.596;2022-09-13T03:38:21;99984.28;;;22.44;44.37
36304;BME280;22335;49.800;8.596;2022-09-13T03:45:15;99973.47;;;22.39;44.95
36304;BME280;22335;49.800;8.596;2022-09-13T03:52:04;99973.91;;;22.41;44.87
36304;BME280;22335;49.800;8.596;2022-09-13T03:58:50;99962.13;;;22.24;44.69
36304;BME280;22335;49.800;8.596;2022-09-13T04:05:38;99973.47;;;22.39;45.42
36304;BME280;22335;49.800;8.596;2022-09-13T04:12:23;99951.16;;;22.39;45.32
36304;BME280;22335;49.800;8.596;2022-09-13T04:19:11;99959.06;;;22.33;45.48
36304;BME280;22335;49.800;8.596;2022-09-13T04:26:04;99953.38;;;22.26;45.52
36304;BME280;22335;49.800;8.596;2022-09-13T04:32:50;99960.59;;;22.27;45.70
36304;BME280;22335;49.800;8.596;2022-09-13T04:39:38;99967.25;;;22.22;45.54
36304;BME280;22335;49.800;8.596;2022-09-13T04:46:27;99964.88;;;22.21;46.01
36304;BME280;22335;49.800;8.596;2022-09-13T04:53:12;99968.47;;;22.21;46.13
36304;BME280;22335;49.800;8.596;2022-09-13T04:59:58;99984.38;;;22.21;46.13
36304;BME280;22335;49.800;8.596;2022-09-13T05:06:47;99999.03;;;22.18;46.05
36304;BME280;22335;49.800;8.596;2022-09-13T05:13:33;99978.03;;;22.01;45.98
36304;BME280;22335;49.800;8.596;2022-09-13T05:20:18;99973.75;;;22.07;45.86
36304;BME280;22335;49.800;8.596;2022-09-13T05:27:07;100013.78;;;22.18;46.09
36304;BME280;22335;49.800;8.596;2022-09-13T05:33:55;100016.16;;;22.20;46.08
36304;BME280;22335;49.800;8.596;2022-09-13T05:40:42;100018.81;;;22.13;46.27
36304;BME280;22335;49.800;8.596;2022-09-13T05:47:30;100009.97;;;22.07;46.62
36304;BME280;22335;49.800;8.596;2022-09-13T05:54:17;100029.97;;;22.13;46.42
36304;BME280;22335;49.800;8.596;2022-09-13T06:01:02;99855.94;;;21.04;46.38
36304;BME280;22335;49.800;8.596;2022-09-13T06:07:50;99994.81;;;22.04;46.63
36304;BME280;22335;49.800;8.596;2022-09-13T06:14:36;100016.22;;;22.23;46.91
36304;BME280;22335;49.800;8.596;2022-09-13T06:21:22;100010.28;;;22.25;47.21
36304;BME280;22335;49.800;8.596;2022-09-13T06:28:12;99998.72;;;22.23;47.05
36304;BME280;22335;49.800;8.596;2022-09-13T06:34:57;100020.25;;;22.26;47.32
36304;BME280;22335;49.800;8.596;2022-09-13T06:41:43;99987.25;;;22.05;47.41
36304;BME280;22335;49.800;8.596;2022-09-13T06:48:35;99948.63;;;21.77;47.62
36304;BME280;22335;49.800;8.596;2022-09-13T06:55:21;99962.94;;;21.75;48.01
36304;BME280;22335;49.800;8.596;2022-09-13T07:02:08;100027.81;;;22.02;47.88
36304;BME280;22335;49.800;8.596;2022-09-13T07:08:59;99992.81;;;21.78;48.35
36304;BME280;22335;49.800;8.596;2022-09-13T07:15:45;100057.59;;;22.21;48.38
36304;BME280;22335;49.800;8.596;2022-09-13T07:22:31;100083.56;;;22.29;48.17
36304;BME280;22335;49.800;8.596;2022-09-13T07:29:20;100065.81;;;22.37;48.72
36304;BME280;22335;49.800;8.596;2022-09-13T07:36:07;100075.06;;;22.45;48.30
36304;BME280;22335;49.800;8.596;2022-09-13T07:42:53;100068.34;;;22.46;48.34
36304;BME280;22335;49.800;8.596;2022-09-13T07:49:41;100036.53;;;22.50;48.55
36304;BME280;22335;49.800;8.596;2022-09-13T07:56:28;99962.72;;;22.14;48.66
36304;BME280;22335;49.800;8.596;2022-09-13T08:03:15;99992.47;;;22.60;48.85
36304;BME280;22335;49.800;8.596;2022-09-13T08:10:04;99967.25;;;22.49;49.47
36304;BME280;22335;49.800;8.596;2022-09-13T08:16:50;100000.13;;;22.66;49.42
36304;BME280;22335;49.800;8.596;2022-09-13T08:23:39;99988.25;;;22.73;49.79
36304;BME280;22335;49.800;8.596;2022-09-13T08:30:27;99990.88;;;22.89;48.69
36304;BME280;22335;49.800;8.596;2022-09-13T08:37:13;99981.03;;;22.68;49.85
36304;BME280;22335;49.800;8.596;2022-09-13T08:44:02;99966.09;;;22.53;50.24
36304;BME280;22335;49.800;8.596;2022-09-13T08:51:00;100003.53;;;22.83;50.02
36304;BME280;22335;49.800;8.596;2022-09-13T08:57:52;99946.56;;;22.50;50.36
36304;BME280;22335;49.800;8.596;2022-09-13T09:04:45;100013.78;;;23.01;50.21
36304;BME280;22335;49.800;8.596;2022-09-13T09:11:41;100011.59;;;23.21;50.76
36304;BME280;22335;49.800;8.596;2022-09-13T09:18:34;100008.13;;;23.32;50.55
36304;BME280;22335;49.800;8.596;2022-09-13T09:25:24;100001.78;;;23.35;50.53
36304;BME280;22335;49.800;8.596;2022-09-13T09:32:22;99997.28;;;23.23;51.11
36304;BME280;22335;49.800;8.596;2022-09-13T09:39:20;99987.25;;;23.18;51.27
36304;BME280;22335;49.800;8.596;2022-09-13T09:46:08;99987.19;;;23.11;51.27
36304;BME280;22335;49.800;8.596;2022-09-13T09:53:03;99971.72;;;22.87;51.77
36304;BME280;22335;49.800;8.596;2022-09-13T10:00:06;100017.00;;;23.41;51.81
36304;BME280;22335;49.800;8.596;2022-09-13T10:07:23;99975.19;;;23.44;51.60
36304;BME280;22335;49.800;8.596;2022-09-13T10:14:29;100007.47;;;23.83;51.23
36304;BME280;22335;49.800;8.596;2022-09-13T10:21:22;100008.00;;;23.99;51.55
36304;BME280;22335;49.800;8.596;2022-09-13T10:28:14;100016.13;;;24.19;50.98
36304;BME280;22335;49.800;8.596;2022-09-13T10:35:08;100015.44;;;24.36;50.74
36304;BME280;22335;49.800;8.596;2022-09-13T10:42:02;100010.81;;;24.54;50.76
36304;BME280;22335;49.800;8.596;2022-09-13T10:48:50;100018.44;;;24.65;50.11
36304;BME280;22335;49.800;8.596;2022-09-13T10:55:39;100018.75;;;24.49;50.53
36304;BME280;22335;49.800;8.596;2022-09-13T11:02:39;100003.03;;;24.30;50.84
36304;BME280;22335;49.800;8.596;2022-09-13T11:09:32;99998.97;;;24.16;51.07
36304;BME280;22335;49.800;8.596;2022-09-13T11:16:33;99984.56;;;24.14;51.58
36304;BME280;22335;49.800;8.596;2022-09-13T11:31:07;99997.94;;;24.43;51.68
36304;BME280;22335;49.800;8.596;2022-09-13T11:38:15;99998.50;;;24.66;51.57
36304;BME280;22335;49.800;8.596;2022-09-13T11:45:20;99990.97;;;24.81;51.52
36304;BME280;22335;49.800;8.596;2022-09-13T11:52:13;99977.41;;;24.87;51.49
36304;BME280;22335;49.800;8.596;2022-09-13T11:59:17;99966.19;;;24.87;51.43
36304;BME280;22335;49.800;8.596;2022-09-13T12:06:10;99971.84;;;24.97;51.24
36304;BME280;22335;49.800;8.596;2022-09-13T12:13:01;99917.53;;;25.05;50.70
36304;BME280;22335;49.800;8.596;2022-09-13T12:19:51;99925.16;;;25.16;51.19
36304;BME280;22335;49.800;8.596;2022-09-13T12:26:45;99913.56;;;25.21;50.98
36304;BME280;22335;49.800;8.596;2022-09-13T12:33:37;99899.97;;;25.26;51.33
36304;BME280;22335;49.800;8.596;2022-09-13T12:47:57;99900.00;;;25.62;50.93
36304;BME280;22335;49.800;8.596;2022-09-13T12:55:19;99900.81;;;25.77;51.36
36304;BME280;22335;49.800;8.596;2022-09-13T13:02:34;99904.78;;;25.97;51.03
36304;BME280;22335;49.800;8.596;2022-09-13T13:09:24;99897.56;;;26.18;50.57
36304;BME280;22335;49.800;8.596;2022-09-13T13:16:23;99895.09;;;26.34;50.44
36304;BME280;22335;49.800;8.596;2022-09-13T13:23:17;99896.16;;;26.69;49.70
36304;BME280;22335;49.800;8.596;2022-09-13T13:37:34;99891.81;;;26.61;49.97
36304;BME280;22335;49.800;8.596;2022-09-13T13:52:35;99863.66;;;26.82;50.59
36304;BME280;22335;49.800;8.596;2022-09-13T13:59:24;99855.25;;;26.75;50.06
36304;BME280;22335;49.800;8.596;2022-09-13T14:06:16;99804.88;;;26.54;50.59
36304;BME280;22335;49.800;8.596;2022-09-13T14:13:22;99834.72;;;26.93;50.60
36304;BME280;22335;49.800;8.596;2022-09-13T14:20:25;99786.81;;;26.62;49.35
36304;BME280;22335;49.800;8.596;2022-09-13T14:27:18;99829.44;;;27.02;49.68
36304;BME280;22335;49.800;8.596;2022-09-13T14:34:19;99832.16;;;27.12;49.60
36304;BME280;22335;49.800;8.596;2022-09-13T14:41:13;99820.47;;;27.25;49.02
36304;BME280;22335;49.800;8.596;2022-09-13T14:48:05;99807.94;;;27.36;48.90
36304;BME280;22335;49.800;8.596;2022-09-13T14:54:56;99798.97;;;27.49;49.28
36304;BME280;22335;49.800;8.596;2022-09-13T15:01:44;99790.03;;;27.61;48.82
36304;BME280;22335;49.800;8.596;2022-09-13T15:08:44;99777.97;;;27.64;48.13
36304;BME280;22335;49.800;8.596;2022-09-13T15:15:35;99783.19;;;27.66;48.07
36304;BME280;22335;49.800;8.596;2022-09-13T15:22:22;99710.44;;;27.37;48.02
36304;BME280;22335;49.800;8.596;2022-09-13T15:29:17;99765.78;;;27.81;48.79
36304;BME280;22335;49.800;8.596;2022-09-13T15:36:26;99759.25;;;27.88;47.34
36304;BME280;22335;49.800;8.596;2022-09-13T15:43:12;99760.00;;;27.92;46.99
36304;BME280;22335;49.800;8.596;2022-09-13T15:50:00;99749.50;;;27.96;46.83
36304;BME280;22335;49.800;8.596;2022-09-13T15:56:46;99749.50;;;27.96;47.13
36304;BME280;22335;49.800;8.596;2022-09-13T16:03:32;99743.97;;;27.89;47.34
36304;BME280;22335;49.800;8.596;2022-09-13T16:10:22;99744.13;;;27.78;47.83
36304;BME280;22335;49.800;8.596;2022-09-13T16:17:10;99738.22;;;27.66;48.08
36304;BME280;22335;49.800;8.596;2022-09-13T16:23:57;99743.50;;;27.60;47.97
36304;BME280;22335;49.800;8.596;2022-09-13T16:30:46;99747.53;;;27.55;48.04
36304;BME280;22335;49.800;8.596;2022-09-13T16:37:31;99744.75;;;27.55;48.18
36304;BME280;22335;49.800;8.596;2022-09-13T16:44:16;99739.72;;;27.74;47.75
36304;BME280;22335;49.800;8.596;2022-09-13T16:51:07;99697.72;;;27.25;48.31
36304;BME280;22335;49.800;8.596;2022-09-13T16:57:53;99732.66;;;27.58;48.77
36304;BME280;22335;49.800;8.596;2022-09-13T17:04:41;99724.25;;;27.58;48.55
36304;BME280;22335;49.800;8.596;2022-09-13T17:11:35;99726.34;;;27.51;49.08
36304;BME280;22335;49.800;8.596;2022-09-13T17:18:25;99729.84;;;27.58;48.89
36304;BME280;22335;49.800;8.596;2022-09-13T17:25:14;99692.53;;;27.24;48.94
36304;BME280;22335;49.800;8.596;2022-09-13T17:32:05;99747.19;;;27.50;49.08
36304;BME280;22335;49.800;8.596;2022-09-13T17:38:54;99748.13;;;27.40;49.59
36304;BME280;22335;49.800;8.596;2022-09-13T17:45:41;99756.94;;;27.42;49.01
36304;BME280;22335;49.800;8.596;2022-09-13T17:52:33;99759.00;;;27.34;49.38
36304;BME280;22335;49.800;8.596;2022-09-13T17:59:21;99761.47;;;27.28;49.46
36304;BME280;22335;49.800;8.596;2022-09-13T18:06:07;99689.69;;;26.82;49.85
36304;BME280;22335;49.800;8.596;2022-09-13T18:12:57;99738.63;;;27.26;49.46
36304;BME280;22335;49.800;8.596;2022-09-13T18:19:44;99732.69;;;27.17;49.53
36304;BME280;22335;49.800;8.596;2022-09-13T18:26:31;99712.69;;;27.08;49.65
36304;BME280;22335;49.800;8.596;2022-09-13T18:33:22;99703.22;;;26.95;50.36
36304;BME280;22335;49.800;8.596;2022-09-13T18:40:13;99713.66;;;26.90;50.68
36304;BME280;22335;49.800;8.596;2022-09-13T18:47:01;99736.19;;;26.80;50.44
36304;BME280;22335;49.800;8.596;2022-09-13T18:53:52;99751.41;;;26.82;50.86
36304;BME280;22335;49.800;8.596;2022-09-13T19:00:38;99721.56;;;26.54;50.58
36304;BME280;22335;49.800;8.596;2022-09-13T19:07:23;99747.88;;;26.71;51.20
36304;BME280;22335;49.800;8.596;2022-09-13T19:14:11;99728.16;;;26.85;50.33
36304;BME280;22335;49.800;8.596;2022-09-13T19:21:01;99732.78;;;26.54;51.13
36304;BME280;22335;49.800;8.596;2022-09-13T19:27:47;99714.78;;;26.52;51.15
36304;BME280;22335;49.800;8.596;2022-09-13T19:34:35;99727.97;;;26.48;51.21
36304;BME280;22335;49.800;8.596;2022-09-13T19:41:23;99726.03;;;26.37;51.27
36304;BME280;22335;49.800;8.596;2022-09-13T19:48:10;99735.66;;;26.36;50.76
36304;BME280;22335;49.800;8.596;2022-09-13T19:55:18;99735.66;;;26.36;50.95
36304;BME280;22335;49.800;8.596;2022-09-13T20:02:04;99732.06;;;26.32;50.79
36304;BME280;22335;49.800;8.596;2022-09-13T20:08:52;99707.72;;;26.22;51.26
36304;BME280;22335;49.800;8.596;2022-09-13T20:15:44;99707.22;;;26.34;51.06
36304;BME280;22335;49.800;8.596;2022-09-13T20:22:29;99720.44;;;26.37;50.93
36304;BME280;22335;49.800;8.596;2022-09-13T20:29:15;99736.44;;;26.40;51.27
36304;BME280;22335;49.800;8.596;2022-09-13T20:36:06;99738.44;;;26.40;51.31
36304;BME280;22335;49.800;8.596;2022-09-13T20:42:54;99732.78;;;26.47;51.15
36304;BME280;22335;49.800;8.596;2022-09-13T20:49:39;99720.25;;;26.66;50.20
36304;BME280;22335;49.800;8.596;2022-09-13T20:56:28;99704.38;;;26.41;50.89
36304;BME280;22335;49.800;8.596;2022-09-13T21:03:15;99720.03;;;26.39;51.07
36304;BME280;22335;49.800;8.596;2022-09-13T21:10:01;99707.59;;;26.40;51.48
36304;BME280;22335;49.800;8.596;2022-09-13T21:16:50;99689.19;;;26.39;51.26
36304;BME280;22335;49.800;8.596;2022-09-13T21:23:37;99642.16;;;26.05;50.98
36304;BME280;22335;49.800;8.596;2022-09-13T21:30:22;99683.16;;;26.40;51.13
36304;BME280;22335;49.800;8.596;2022-09-13T21:37:11;99673.56;;;26.38;51.41
36304;BME280;22335;49.800;8.596;2022-09-13T21:43:56;99676.38;;;26.38;51.01
36304;BME280;22335;49.800;8.596;2022-09-13T21:50:42;99653.94;;;26.38;51.05
36304;BME280;22335;49.800;8.596;2022-09-13T21:57:30;99637.97;;;26.31;50.90
36304;BME280;22335;49.800;8.596;2022-09-13T22:04:17;99620.41;;;26.20;51.53
36304;BME280;22335;49.800;8.596;2022-09-13T22:11:06;99602.81;;;26.19;51.57
36304;BME280;22335;49.800;8.596;2022-09-13T22:17:55;99598.47;;;26.11;51.26
36304;BME280;22335;49.800;8.596;2022-09-13T22:24:41;99604.88;;;26.12;51.46
36304;BME280;22335;49.800;8.596;2022-09-13T22:31:29;99596.06;;;26.10;51.25
36304;BME280;22335;49.800;8.596;2022-09-13T22:38:18;99607.69;;;26.12;51.70
36304;BME280;22335;49.800;8.596;2022-09-13T22:45:04;99600.47;;;26.14;51.21
36304;BME280;22335;49.800;8.596;2022-09-13T22:51:51;99592.06;;;26.11;51.52
36304;BME280;22335;49.800;8.596;2022-09-13T22:58:39;99583.97;;;26.20;51.54
36304;BME280;22335;49.800;8.596;2022-09-13T23:05:25;99581.97;;;26.24;51.47
36304;BME280;22335;49.800;8.596;2022-09-13T23:12:10;99590.34;;;26.28;51.11
36304;BME280;22335;49.800;8.596;2022-09-13T23:18:59;99568.34;;;26.22;51.22
36304;BME280;22335;49.800;8.596;2022-09-13T23:25:45;99563.16;;;26.21;51.14
36304;BME280;22335;49.800;8.596;2022-09-13T23:32:30;99571.59;;;26.17;50.80
36304;BME280;22335;49.800;8.596;2022-09-13T23:39:18;99560.03;;;26.12;50.58
36304;BME280;22335;49.800;8.596;2022-09-13T23:46:04;99578.75;;;26.22;50.82
36304;BME280;22335;49.800;8.596;2022-09-13T23:52:50;99582.00;;;26.20;50.97
36304;BME280;22335;49.800;8.596;2022-09-13T23:59:38;99573.44;;;26.35;50.19
